Morse, Texas
Current Conditions -  °F | °C
As of 1:51 PM on Thursday 18 Dec 2014 (Local Time) from KBGD Reporting Station
Overcast Overcast  
Wind Chill: 30°   Ceiling: 1300
Heat Index: 36°   Visibility: 10mi
Dew Point: 29°   Wind: 8mph
Humidity: 76%   Direction: 360°N
Pressure: 30.1"   Gusts: NA
Location:  36.06°N, 101.48°W
Report Text: KBGD 181951Z AUTO 36007KT 10SM OVC013 02/M02 A3010 RMK AO2 SLP199 T00221017
Loading
Personal Weather Stations






























Interactive Weather Map New forecast layout! Learn more

10-Day Weather Forecast

Advertisements
Track Severe Weather on mobile